Time;durP1;ratioP1;P1;durP2;ratioP2;P2;SDS_P1;SDS_P2;PMS_P1;PMS_P2;Temp;Humidity;BMP_temperature;BMP_pressure;BME280_temperature;BME280_humidity;BME280_pressure;Samples;Min_cycle;Max_cycle;Signal;HPM_P1;HPM_P2
2021/10/29 00:00:08;;;;;;;13.23;9.97;;;11.00;99.90;;;;;;5070842;28;20231;-88
2021/10/29 00:02:35;;;;;;;12.80;10.30;;;11.00;99.90;;;;;;5070580;28;20200;-85
2021/10/29 00:05:03;;;;;;;12.83;10.30;;;11.00;99.90;;;;;;5086068;28;20219;-84
2021/10/29 00:07:29;;;;;;;15.20;10.40;;;11.00;99.90;;;;;;5092788;28;20209;-87
2021/10/29 00:09:58;;;;;;;11.57;9.83;;;10.90;99.90;;;;;;5092573;28;20216;-86
2021/10/29 00:12:24;;;;;;;14.77;10.00;;;10.90;99.90;;;;;;5092475;28;20553;-85
2021/10/29 00:14:53;;;;;;;11.90;10.10;;;10.90;99.90;;;;;;5092519;28;20204;-85
2021/10/29 00:17:21;;;;;;;12.43;9.83;;;10.90;99.90;;;;;;5089782;28;20223;-86
2021/10/29 00:19:48;;;;;;;12.70;9.67;;;10.90;99.90;;;;;;5073113;28;20197;-86
2021/10/29 00:22:15;;;;;;;11.23;9.90;;;10.80;99.90;;;;;;5072192;28;20217;-85
2021/10/29 00:24:42;;;;;;;15.13;10.37;;;10.80;99.90;;;;;;5077432;28;20916;-84
2021/10/29 00:27:08;;;;;;;11.33;9.73;;;10.80;99.90;;;;;;5092995;28;20204;-85
2021/10/29 00:29:35;;;;;;;12.33;10.17;;;10.80;99.90;;;;;;5092344;28;20207;-87
2021/10/29 00:32:04;;;;;;;11.67;9.37;;;10.80;99.90;;;;;;5093031;28;20193;-85
2021/10/29 00:34:32;;;;;;;12.87;9.67;;;10.70;99.90;;;;;;5092302;28;20209;-86
2021/10/29 00:36:58;;;;;;;12.43;9.87;;;10.70;99.90;;;;;;5086121;28;20254;-84
2021/10/29 00:39:25;;;;;;;11.77;9.33;;;10.70;99.90;;;;;;5091693;28;20279;-84
2021/10/29 00:41:52;;;;;;;13.13;9.63;;;10.70;99.90;;;;;;5083307;28;20225;-86
2021/10/29 00:44:23;;;;;;;10.37;9.17;;;10.70;99.90;;;;;;5071120;28;20212;-85
2021/10/29 00:46:50;;;;;;;12.87;9.90;;;10.70;99.90;;;;;;5088292;28;20235;-86
2021/10/29 00:49:18;;;;;;;13.10;10.23;;;10.70;99.90;;;;;;5089862;28;20200;-84
2021/10/29 00:51:45;;;;;;;10.70;9.17;;;10.70;99.90;;;;;;5081787;28;20613;-86
2021/10/29 00:54:12;;;;;;;13.80;10.27;;;10.60;99.90;;;;;;5070433;28;20208;-86
2021/10/29 00:56:40;;;;;;;13.47;9.77;;;10.60;99.90;;;;;;5071202;28;20209;-86
2021/10/29 00:59:06;;;;;;;12.23;9.50;;;10.60;99.90;;;;;;5071784;28;20676;-85
2021/10/29 01:01:33;;;;;;;12.90;9.87;;;10.60;99.90;;;;;;5071455;28;20620;-83
2021/10/29 01:04:00;;;;;;;12.17;9.60;;;10.60;99.90;;;;;;5071257;28;20500;-84
2021/10/29 01:06:28;;;;;;;13.47;10.10;;;10.50;99.90;;;;;;5071210;28;20204;-86
2021/10/29 01:08:55;;;;;;;14.03;9.83;;;10.50;99.90;;;;;;5071322;28;20220;-90
2021/10/29 01:11:22;;;;;;;13.60;10.73;;;10.50;99.90;;;;;;5070581;28;20608;-85
2021/10/29 01:13:50;;;;;;;11.77;8.97;;;10.50;99.90;;;;;;5050678;28;20190;-85
2021/10/29 01:16:17;;;;;;;22.93;11.87;;;10.50;99.90;;;;;;5067664;28;20216;-84
2021/10/29 01:18:44;;;;;;;13.43;10.37;;;10.50;99.90;;;;;;5069200;28;20612;-84
2021/10/29 01:21:12;;;;;;;11.90;10.63;;;10.50;99.90;;;;;;5069772;28;20225;-86
2021/10/29 01:23:40;;;;;;;12.97;9.80;;;10.50;99.90;;;;;;5071076;28;20213;-83
2021/10/29 01:26:09;;;;;;;12.37;9.90;;;10.50;99.90;;;;;;5069614;28;20193;-84
2021/10/29 01:28:36;;;;;;;11.77;9.87;;;10.50;99.90;;;;;;5068643;28;20251;-84
2021/10/29 01:31:03;;;;;;;13.43;10.53;;;10.50;99.90;;;;;;5073468;28;20207;-85
2021/10/29 01:33:31;;;;;;;12.03;9.77;;;10.50;99.90;;;;;;5088599;28;20192;-87
2021/10/29 01:35:58;;;;;;;13.43;10.37;;;10.50;99.90;;;;;;5091397;28;20212;-84
2021/10/29 01:38:32;;;;;;;14.30;10.30;;;10.50;99.90;;;;;;5077520;28;20207;-83
2021/10/29 01:40:59;;;;;;;14.57;9.90;;;10.50;99.90;;;;;;5083129;28;20228;-85
2021/10/29 01:43:27;;;;;;;12.90;9.60;;;10.50;99.90;;;;;;5091021;28;20192;-81
2021/10/29 01:45:54;;;;;;;13.73;9.70;;;10.50;99.90;;;;;;5090709;28;20188;-87
2021/10/29 01:48:21;;;;;;;10.57;8.93;;;10.50;99.90;;;;;;5090632;28;20184;-87
2021/10/29 01:50:48;;;;;;;12.77;9.63;;;10.50;99.90;;;;;;5077311;28;20630;-86
2021/10/29 01:53:15;;;;;;;12.03;10.23;;;10.50;99.90;;;;;;5071105;28;20528;-88
2021/10/29 01:55:44;;;;;;;12.80;9.93;;;10.50;99.90;;;;;;5070776;28;20247;-85
2021/10/29 01:58:11;;;;;;;14.20;9.73;;;10.50;99.90;;;;;;5090224;28;20459;-86
2021/10/29 02:00:38;;;;;;;12.20;9.90;;;10.50;99.90;;;;;;5089319;28;20240;-85
2021/10/29 02:03:04;;;;;;;15.13;9.77;;;10.50;99.90;;;;;;5088729;28;20215;-85
2021/10/29 02:05:31;;;;;;;13.97;10.13;;;10.50;99.90;;;;;;5089945;28;20200;-84
2021/10/29 02:07:58;;;;;;;12.50;10.37;;;10.50;99.90;;;;;;5090756;28;20197;-85
2021/10/29 02:10:25;;;;;;;12.50;10.20;;;10.40;99.90;;;;;;5089628;28;20201;-86
2021/10/29 02:12:53;;;;;;;11.83;9.90;;;10.50;99.90;;;;;;5088884;28;20211;-85
2021/10/29 02:15:20;;;;;;;12.70;10.10;;;10.40;99.90;;;;;;5090478;28;20189;-85
2021/10/29 02:17:46;;;;;;;10.67;9.50;;;10.40;99.90;;;;;;5087078;28;20220;-85
2021/10/29 02:20:13;;;;;;;12.33;9.63;;;10.40;99.90;;;;;;5070401;28;20202;-87
2021/10/29 02:22:40;;;;;;;11.37;9.97;;;10.40;99.90;;;;;;5070396;28;20217;-84
2021/10/29 02:25:08;;;;;;;14.67;11.40;;;10.40;99.90;;;;;;5079083;28;20572;-85
2021/10/29 02:27:35;;;;;;;11.30;9.80;;;10.40;99.90;;;;;;5090454;28;20212;-85
2021/10/29 02:30:04;;;;;;;10.27;9.07;;;10.30;99.90;;;;;;5091049;28;20532;-86
2021/10/29 02:32:31;;;;;;;13.00;9.67;;;10.30;99.90;;;;;;5091069;28;20275;-86
2021/10/29 02:34:58;;;;;;;15.23;10.20;;;10.30;99.90;;;;;;5090478;28;20207;-85
2021/10/29 02:37:24;;;;;;;15.07;10.33;;;10.30;99.90;;;;;;5076524;28;20220;-83
2021/10/29 02:39:52;;;;;;;12.23;9.60;;;10.30;99.90;;;;;;5070944;28;20193;-86
2021/10/29 02:42:18;;;;;;;14.20;10.30;;;10.20;99.90;;;;;;5070369;28;20280;-84
2021/10/29 02:44:45;;;;;;;11.43;9.87;;;10.30;99.90;;;;;;5070501;28;20960;-86
2021/10/29 02:47:13;;;;;;;13.90;9.53;;;10.20;99.90;;;;;;5072290;28;20212;-86
2021/10/29 02:49:40;;;;;;;14.13;9.77;;;10.20;99.90;;;;;;5074058;28;20205;-85
2021/10/29 02:52:08;;;;;;;12.60;9.57;;;10.20;99.90;;;;;;5077506;28;20291;-85
2021/10/29 02:54:34;;;;;;;12.80;9.67;;;10.20;99.90;;;;;;5093887;28;20314;-87
2021/10/29 02:57:01;;;;;;;15.27;9.30;;;10.20;99.90;;;;;;5087800;28;20212;-84
2021/10/29 02:59:28;;;;;;;12.30;10.50;;;10.10;99.90;;;;;;5072852;28;20204;-85
2021/10/29 03:01:55;;;;;;;12.80;9.90;;;10.10;99.90;;;;;;5074266;28;20907;-86
2021/10/29 03:04:24;;;;;;;14.40;9.57;;;10.10;99.90;;;;;;5074180;28;20201;-87
2021/10/29 03:06:50;;;;;;;14.33;9.97;;;10.10;99.90;;;;;;5073299;28;20206;-87
2021/10/29 03:09:17;;;;;;;12.83;9.80;;;10.10;99.90;;;;;;5074137;28;20213;-86
2021/10/29 03:11:44;;;;;;;15.97;10.03;;;10.10;99.90;;;;;;5074393;28;20546;-86
2021/10/29 03:14:11;;;;;;;12.70;9.40;;;10.10;99.90;;;;;;5073319;28;20501;-83
2021/10/29 03:16:38;;;;;;;11.50;9.37;;;10.10;99.90;;;;;;5073588;28;20229;-85
2021/10/29 03:19:06;;;;;;;14.20;9.63;;;10.10;99.90;;;;;;5073411;28;20205;-85
2021/10/29 03:21:34;;;;;;;12.07;9.20;;;10.10;99.90;;;;;;5073202;28;20241;-84
2021/10/29 03:24:01;;;;;;;11.50;9.23;;;10.10;99.90;;;;;;5072246;28;20213;-84
2021/10/29 03:26:28;;;;;;;12.83;8.70;;;10.10;99.90;;;;;;5091702;28;20212;-85
2021/10/29 03:28:55;;;;;;;12.07;10.07;;;10.10;99.90;;;;;;5094027;28;20196;-85
2021/10/29 03:31:22;;;;;;;12.43;9.97;;;10.10;99.90;;;;;;5093918;28;20223;-86
2021/10/29 03:33:49;;;;;;;11.17;9.87;;;10.10;99.90;;;;;;5074806;28;20561;-86
2021/10/29 03:36:16;;;;;;;12.23;9.33;;;10.10;99.90;;;;;;5073178;28;20236;-85
2021/10/29 03:38:50;;;;;;;14.83;9.63;;;10.10;99.90;;;;;;5073636;28;20197;-84
2021/10/29 03:41:19;;;;;;;11.87;9.63;;;10.20;99.90;;;;;;5072591;28;20201;-85
2021/10/29 03:43:51;;;;;;;12.23;9.30;;;10.20;99.90;;;;;;5073494;28;20197;-83
2021/10/29 03:46:20;;;;;;;12.27;10.00;;;10.20;99.90;;;;;;5072937;28;20208;-85
2021/10/29 03:48:56;;;;;;;13.07;9.07;;;10.20;99.90;;;;;;5080356;28;20228;-84
2021/10/29 03:51:24;;;;;;;12.43;9.07;;;10.20;99.90;;;;;;5091785;28;20724;-83
2021/10/29 03:53:56;;;;;;;10.97;9.57;;;10.20;99.90;;;;;;5095984;28;20205;-85
2021/10/29 03:56:24;;;;;;;11.37;9.43;;;10.20;99.90;;;;;;5092415;28;20193;-83
2021/10/29 03:58:53;;;;;;;13.07;10.50;;;10.30;99.90;;;;;;5091735;28;20483;-82
2021/10/29 04:01:21;;;;;;;10.77;8.57;;;10.30;99.90;;;;;;5092251;28;20232;-84
2021/10/29 04:03:48;;;;;;;12.67;9.00;;;10.30;99.90;;;;;;5092735;28;20240;-85
2021/10/29 04:06:15;;;;;;;14.47;9.23;;;10.30;99.90;;;;;;5091711;28;20634;-85
2021/10/29 04:08:42;;;;;;;12.33;8.93;;;10.30;99.90;;;;;;5093104;28;20255;-86
2021/10/29 04:11:11;;;;;;;11.40;9.00;;;10.30;99.90;;;;;;5088006;28;20671;-85
2021/10/29 04:13:41;;;;;;;11.40;8.83;;;10.30;99.90;;;;;;5072376;28;20267;-85
2021/10/29 04:16:08;;;;;;;11.53;9.13;;;10.30;99.90;;;;;;5089654;28;20220;-85
2021/10/29 04:18:36;;;;;;;10.90;9.17;;;10.30;99.90;;;;;;5092858;28;20203;-84
2021/10/29 04:21:03;;;;;;;9.73;8.43;;;10.30;99.90;;;;;;5078701;28;20524;-85
2021/10/29 04:23:30;;;;;;;12.13;9.50;;;10.30;99.90;;;;;;5069935;28;20225;-84
2021/10/29 04:25:57;;;;;;;12.87;8.97;;;10.30;99.90;;;;;;5072385;28;20415;-85
2021/10/29 04:28:26;;;;;;;10.83;8.97;;;10.30;99.90;;;;;;5089420;28;20209;-84
2021/10/29 04:30:53;;;;;;;13.47;9.50;;;10.30;99.90;;;;;;5091919;28;20230;-86
2021/10/29 04:33:20;;;;;;;15.23;9.43;;;10.30;99.90;;;;;;5091947;28;20204;-84
2021/10/29 04:35:51;;;;;;;15.33;9.33;;;10.30;99.90;;;;;;5079853;28;20211;-83
2021/10/29 04:38:18;;;;;;;12.70;9.27;;;10.30;99.90;;;;;;5071825;28;20209;-85
2021/10/29 04:40:45;;;;;;;12.90;9.63;;;10.30;99.90;;;;;;5072017;28;20205;-85
2021/10/29 04:43:12;;;;;;;11.27;8.40;;;10.30;99.90;;;;;;5071980;28;20221;-84
2021/10/29 04:45:41;;;;;;;11.13;8.67;;;10.30;99.90;;;;;;5068201;28;20196;-85
2021/10/29 04:48:08;;;;;;;10.87;9.13;;;10.30;99.90;;;;;;5072185;28;20791;-85
2021/10/29 04:50:35;;;;;;;16.53;10.13;;;10.30;99.90;;;;;;5083208;28;20212;-86
2021/10/29 04:53:02;;;;;;;14.20;9.50;;;10.30;99.90;;;;;;5080154;28;20197;-85
2021/10/29 04:55:29;;;;;;;13.13;9.33;;;10.30;99.90;;;;;;5072104;28;20200;-85
2021/10/29 04:57:56;;;;;;;13.27;9.30;;;10.30;99.90;;;;;;5071703;28;20585;-86
2021/10/29 05:00:24;;;;;;;12.20;8.83;;;10.30;99.90;;;;;;5071509;28;20232;-82
2021/10/29 05:02:54;;;;;;;10.10;9.07;;;10.30;99.90;;;;;;5071690;28;20213;-86
2021/10/29 05:05:21;;;;;;;11.10;8.70;;;10.30;99.90;;;;;;5070527;28;20221;-84
2021/10/29 05:07:48;;;;;;;13.10;9.37;;;10.30;99.90;;;;;;5082631;28;20216;-83
2021/10/29 05:10:15;;;;;;;12.63;9.73;;;10.30;99.90;;;;;;5091251;28;20601;-83
2021/10/29 05:12:42;;;;;;;12.50;8.57;;;10.30;99.90;;;;;;5090715;28;20697;-84
2021/10/29 05:15:11;;;;;;;11.07;9.27;;;10.40;99.90;;;;;;5090230;28;20208;-85
2021/10/29 05:17:38;;;;;;;11.47;8.97;;;10.30;99.90;;;;;;5089232;28;20538;-86
2021/10/29 05:20:07;;;;;;;11.67;8.40;;;10.40;99.90;;;;;;5088299;28;20232;-87
2021/10/29 05:22:34;;;;;;;11.23;8.77;;;10.40;99.90;;;;;;5084078;28;20225;-86
2021/10/29 05:25:01;;;;;;;13.17;8.87;;;10.40;99.90;;;;;;5076865;28;20794;-85
2021/10/29 05:27:27;;;;;;;12.80;9.10;;;10.30;99.90;;;;;;5088710;28;20204;-87
2021/10/29 05:29:54;;;;;;;13.47;8.33;;;10.30;99.90;;;;;;5075857;28;20205;-85
2021/10/29 05:32:22;;;;;;;12.93;8.73;;;10.30;99.90;;;;;;5068913;28;20202;-85
2021/10/29 05:34:49;;;;;;;9.83;8.50;;;10.30;99.90;;;;;;5068133;28;20599;-86
2021/10/29 05:37:17;;;;;;;12.80;8.80;;;10.30;99.90;;;;;;5066958;28;20204;-86
2021/10/29 05:39:45;;;;;;;11.17;8.47;;;10.30;99.90;;;;;;5067490;28;20219;-86
2021/10/29 05:42:11;;;;;;;12.70;9.20;;;10.30;99.90;;;;;;5069926;28;20308;-85
2021/10/29 05:44:38;;;;;;;10.40;8.87;;;10.30;99.90;;;;;;5071254;28;20209;-85
2021/10/29 05:47:05;;;;;;;11.77;8.37;;;10.30;99.90;;;;;;5068942;28;20212;-85
2021/10/29 05:49:32;;;;;;;10.00;8.40;;;10.30;99.90;;;;;;5068299;28;20198;-85
2021/10/29 05:51:59;;;;;;;14.63;8.57;;;10.30;99.90;;;;;;5070266;28;20198;-83
2021/10/29 05:54:40;;;;;;;12.60;8.67;;;10.30;99.90;;;;;;5069575;28;20292;-84
2021/10/29 05:57:07;;;;;;;13.70;9.20;;;10.30;99.90;;;;;;5070549;28;20224;-87
2021/10/29 05:59:35;;;;;;;9.97;8.40;;;10.40;99.90;;;;;;5070965;28;20231;-84
2021/10/29 06:02:03;;;;;;;11.97;8.80;;;10.40;99.90;;;;;;5070535;28;20205;-85
2021/10/29 06:04:30;;;;;;;9.40;7.07;;;10.40;99.90;;;;;;5070895;28;20201;-86
2021/10/29 06:06:57;;;;;;;12.30;7.77;;;10.40;99.90;;;;;;5071484;28;20201;-85
2021/10/29 06:09:24;;;;;;;17.83;9.13;;;10.40;99.90;;;;;;5070851;28;20193;-87
2021/10/29 06:11:52;;;;;;;9.33;7.93;;;10.50;99.90;;;;;;5071288;28;20212;-85
2021/10/29 06:14:20;;;;;;;10.83;7.87;;;10.50;99.90;;;;;;5070137;28;20474;-85
2021/10/29 06:16:49;;;;;;;10.07;7.77;;;10.40;99.90;;;;;;5070100;28;20225;-88
2021/10/29 06:19:16;;;;;;;16.40;8.33;;;10.50;99.90;;;;;;5081792;28;20238;-88
2021/10/29 06:21:51;;;;;;;11.67;8.70;;;10.50;99.90;;;;;;5092114;28;20204;-87
2021/10/29 06:24:17;;;;;;;10.60;7.80;;;10.50;99.90;;;;;;5087625;28;20208;-86
2021/10/29 06:26:48;;;;;;;9.40;7.87;;;10.50;99.90;;;;;;5093791;28;20209;-86
2021/10/29 06:29:17;;;;;;;11.20;7.83;;;10.50;99.90;;;;;;5079710;28;20209;-86
2021/10/29 06:31:44;;;;;;;10.20;7.87;;;10.40;99.90;;;;;;5074752;28;20197;-88
2021/10/29 06:34:12;;;;;;;12.53;9.23;;;10.40;99.90;;;;;;5074908;28;20197;-86
2021/10/29 06:36:39;;;;;;;17.03;7.73;;;10.30;99.90;;;;;;5073172;28;20205;-82
2021/10/29 06:39:07;;;;;;;10.83;8.40;;;10.40;99.90;;;;;;5073648;28;20200;-85
2021/10/29 06:41:34;;;;;;;13.03;8.73;;;10.30;99.90;;;;;;5073100;28;20451;-84
2021/10/29 06:44:15;;;;;;;14.53;8.87;;;10.30;99.90;;;;;;5071968;28;20214;-85
2021/10/29 06:46:47;;;;;;;9.73;7.90;;;10.30;99.90;;;;;;5087733;28;20200;-85
2021/10/29 06:49:18;;;;;;;10.53;8.60;;;10.30;99.90;;;;;;5091751;28;20543;-84
2021/10/29 06:52:19;;;;;;;11.53;7.83;;;10.20;99.90;;;;;;5069831;28;20293;-82
2021/10/29 07:01:10;;;;;;;15.60;8.47;;;10.20;99.90;;;;;;5072550;28;20294;-83
2021/10/29 07:12:21;;;;;;;12.90;8.60;;;10.30;99.90;;;;;;5088477;28;20219;-84
2021/10/29 07:42:14;;;;;;;9.93;8.80;;;10.50;99.90;;;;;;5089574;28;20250;-81
2021/10/29 07:44:41;;;;;;;11.30;8.23;;;10.50;99.90;;;;;;5090522;28;20208;-81
2021/10/29 07:47:08;;;;;;;12.70;8.17;;;10.50;99.90;;;;;;5089016;28;20554;-82
2021/10/29 07:49:35;;;;;;;12.03;8.20;;;10.50;99.90;;;;;;5090571;28;20207;-83
2021/10/29 07:52:04;;;;;;;10.63;8.47;;;10.60;99.90;;;;;;5090200;28;20208;-81
2021/10/29 07:54:30;;;;;;;10.10;8.43;;;10.70;99.90;;;;;;5090298;28;20215;-88
2021/10/29 07:56:57;;;;;;;12.03;8.43;;;10.70;99.90;;;;;;5092201;28;20204;-81
2021/10/29 07:59:25;;;;;;;11.37;8.30;;;10.70;99.90;;;;;;5077653;28;20510;-81
2021/10/29 08:01:53;;;;;;;10.00;8.60;;;10.80;99.90;;;;;;5068443;28;20201;-83
2021/10/29 08:04:22;;;;;;;11.93;8.13;;;10.80;99.90;;;;;;5068766;28;20225;-81
2021/10/29 08:06:50;;;;;;;10.63;7.80;;;10.90;99.90;;;;;;5070824;28;20217;-84
2021/10/29 08:09:19;;;;;;;11.30;8.07;;;10.90;99.90;;;;;;5069581;28;20205;-84
2021/10/29 08:11:46;;;;;;;11.93;8.20;;;10.90;99.90;;;;;;5069984;28;20278;-80
2021/10/29 08:14:13;;;;;;;9.33;7.63;;;11.00;99.90;;;;;;5069905;28;20197;-83
2021/10/29 08:16:40;;;;;;;10.80;8.10;;;11.10;99.90;;;;;;5051679;28;20260;-83
2021/10/29 08:19:07;;;;;;;21.07;9.60;;;11.10;99.90;;;;;;5069374;28;20209;-83
2021/10/29 08:21:33;;;;;;;12.23;8.40;;;11.10;99.90;;;;;;5068677;28;20201;-82
2021/10/29 08:24:00;;;;;;;10.67;8.73;;;11.20;99.90;;;;;;5068439;28;20306;-82
2021/10/29 08:26:29;;;;;;;8.93;7.77;;;11.20;99.90;;;;;;5069854;28;20209;-83
2021/10/29 08:28:55;;;;;;;13.60;8.43;;;11.30;99.90;;;;;;5072116;28;20216;-84
2021/10/29 08:31:22;;;;;;;12.77;8.60;;;11.30;99.90;;;;;;5075931;28;20225;-81
2021/10/29 08:33:49;;;;;;;15.00;8.10;;;11.40;99.90;;;;;;5069069;28;20197;-83
2021/10/29 08:36:19;;;;;;;10.77;8.03;;;11.50;99.90;;;;;;5069022;28;20864;-81
2021/10/29 08:38:46;;;;;;;12.53;8.03;;;11.50;99.90;;;;;;5069946;28;20223;-80
2021/10/29 08:41:13;;;;;;;11.10;7.57;;;11.50;99.90;;;;;;5082175;28;20266;-81
2021/10/29 08:43:42;;;;;;;10.60;7.90;;;11.60;99.90;;;;;;5085667;28;20256;-80
2021/10/29 08:46:08;;;;;;;10.27;7.67;;;11.60;99.90;;;;;;5067227;28;20193;-81
2021/10/29 08:48:37;;;;;;;11.10;8.50;;;11.70;99.90;;;;;;5079546;28;20220;-80
2021/10/29 08:51:04;;;;;;;10.93;8.10;;;11.80;99.90;;;;;;5086160;28;20220;-81
2021/10/29 08:53:31;;;;;;;9.57;6.83;;;11.80;99.90;;;;;;5086714;28;20189;-81
2021/10/29 08:56:02;;;;;;;11.13;8.00;;;11.90;99.90;;;;;;5085971;28;20208;-81
2021/10/29 08:58:30;;;;;;;10.77;7.53;;;11.90;99.90;;;;;;5086122;28;20201;-80
2021/10/29 09:01:09;;;;;;;10.60;7.40;;;12.00;99.90;;;;;;5084215;28;20242;-81
2021/10/29 09:03:43;;;;;;;14.07;8.07;;;12.10;99.90;;;;;;5083850;28;20258;-81
2021/10/29 09:06:25;;;;;;;10.53;7.83;;;12.20;99.90;;;;;;5082194;28;20215;-80
2021/10/29 09:09:03;;;;;;;12.93;7.97;;;12.20;99.90;;;;;;5082922;28;20211;-81
2021/10/29 09:11:46;;;;;;;8.33;7.00;;;12.30;99.90;;;;;;5081253;28;20212;-79
2021/10/29 09:31:28;;;;;;;11.80;6.93;;;12.90;99.90;;;;;;5067921;28;20188;-81
2021/10/29 09:34:00;;;;;;;8.27;5.87;;;12.90;99.90;;;;;;5067805;28;20212;-80
2021/10/29 09:36:29;;;;;;;8.80;6.87;;;13.00;99.90;;;;;;5067647;28;20200;-79
2021/10/29 09:39:05;;;;;;;9.87;6.80;;;13.10;99.90;;;;;;5067853;28;20216;-83
2021/10/29 09:41:32;;;;;;;9.20;6.57;;;13.20;99.90;;;;;;5067622;28;20250;-81
2021/10/29 09:44:06;;;;;;;8.50;6.30;;;13.30;99.90;;;;;;5068314;28;20229;-81
2021/10/29 09:46:38;;;;;;;7.77;6.97;;;13.30;99.90;;;;;;5067089;28;20900;-81
2021/10/29 09:49:15;;;;;;;8.80;6.10;;;13.40;99.90;;;;;;5067684;28;20240;-82
2021/10/29 09:52:09;;;;;;;9.57;6.50;;;13.30;99.90;;;;;;5068887;28;20232;-82
2021/10/29 09:54:49;;;;;;;9.67;6.60;;;13.40;99.90;;;;;;5086121;28;20232;-85
2021/10/29 09:57:16;;;;;;;8.97;6.50;;;13.50;99.90;;;;;;5073119;28;20262;-83
2021/10/29 09:59:43;;;;;;;9.27;7.60;;;13.60;99.90;;;;;;5067577;28;20241;-83
2021/10/29 10:02:17;;;;;;;12.67;6.70;;;13.70;99.90;;;;;;5067572;28;20197;-83
2021/10/29 10:04:47;;;;;;;10.30;6.90;;;13.80;99.90;;;;;;5067922;28;20308;-81
2021/10/29 10:07:15;;;;;;;9.73;6.43;;;13.80;99.90;;;;;;5067613;28;20197;-83
2021/10/29 10:09:43;;;;;;;7.00;6.30;;;13.90;99.90;;;;;;5068695;28;20690;-80
2021/10/29 10:12:11;;;;;;;7.33;5.93;;;14.00;99.90;;;;;;5067586;28;20699;-84
2021/10/29 10:14:38;;;;;;;8.80;6.20;;;14.10;99.90;;;;;;5067047;28;20600;-79
2021/10/29 10:17:05;;;;;;;9.83;6.70;;;14.10;99.90;;;;;;5067649;28;20228;-83
2021/10/29 10:19:33;;;;;;;9.47;6.07;;;14.20;99.90;;;;;;5067769;28;20257;-81
2021/10/29 10:22:04;;;;;;;7.53;5.97;;;14.20;99.90;;;;;;5067798;28;20208;-82
2021/10/29 10:24:33;;;;;;;7.97;6.53;;;14.30;99.90;;;;;;5067924;28;20236;-83
2021/10/29 10:29:58;;;;;;;11.13;7.00;;;14.40;99.90;;;;;;5068676;28;20204;-82
2021/10/29 10:41:09;;;;;;;8.10;6.27;;;14.70;99.90;;;;;;5068962;28;20192;-85
2021/10/29 10:43:44;;;;;;;9.77;6.20;;;14.80;99.90;;;;;;5066887;28;20213;-82
2021/10/29 10:46:18;;;;;;;6.97;6.17;;;14.80;99.90;;;;;;5069418;28;20296;-84
2021/10/29 10:48:49;;;;;;;7.70;6.10;;;14.90;99.90;;;;;;5069525;28;20668;-82
2021/10/29 10:51:52;;;;;;;9.20;5.77;;;15.00;99.90;;;;;;5068833;28;20209;-88
2021/10/29 10:54:30;;;;;;;9.87;5.37;;;15.00;99.90;;;;;;5005897;28;20274;-86
2021/10/29 10:57:05;;;;;;;7.80;5.77;;;15.00;99.90;;;;;;5061068;28;20209;-84
2021/10/29 10:59:55;;;;;;;6.57;5.73;;;15.10;99.90;;;;;;5081404;28;20230;-85
2021/10/29 11:10:54;;;;;;;9.40;5.97;;;15.30;99.90;;;;;;5090980;28;20181;-84
2021/10/29 11:13:21;;;;;;;7.60;5.70;;;15.30;99.90;;;;;;5090089;28;20192;-83
2021/10/29 11:15:59;;;;;;;9.10;5.40;;;15.40;99.90;;;;;;5071883;28;20189;-84
2021/10/29 11:18:33;;;;;;;8.80;5.30;;;15.50;99.90;;;;;;5070918;28;20221;-83
2021/10/29 11:21:20;;;;;;;10.37;5.57;;;15.60;99.90;;;;;;5090216;28;20213;-81
2021/10/29 11:23:52;;;;;;;8.17;4.90;;;15.70;99.90;;;;;;5089724;28;20260;-83
2021/10/29 11:26:28;;;;;;;9.17;5.10;;;15.70;99.90;;;;;;5088129;28;20769;-84
2021/10/29 11:28:55;;;;;;;9.03;5.23;;;15.90;99.90;;;;;;5089662;28;20490;-81
2021/10/29 11:31:26;;;;;;;8.37;4.70;;;15.90;99.90;;;;;;5089417;28;20200;-83
2021/10/29 11:33:56;;;;;;;6.47;4.43;;;15.90;99.90;;;;;;5070250;28;20202;-81
2021/10/29 11:36:24;;;;;;;6.35;4.53;;;15.90;99.90;;;;;;5069854;28;20545;-83
2021/10/29 11:38:52;;;;;;;8.40;4.80;;;16.00;99.90;;;;;;5068292;28;20201;-83
2021/10/29 11:41:21;;;;;;;10.60;4.93;;;15.90;99.90;;;;;;5070715;28;20216;-79
2021/10/29 11:43:51;;;;;;;7.40;4.67;;;16.00;99.90;;;;;;5087440;28;20231;-81
2021/10/29 11:46:18;;;;;;;8.27;4.37;;;16.00;99.90;;;;;;5087338;28;20200;-81
2021/10/29 11:48:55;;;;;;;7.23;4.27;;;16.00;99.90;;;;;;5086407;28;20200;-82
2021/10/29 11:51:24;;;;;;;12.68;5.30;;;16.00;99.90;;;;;;5088622;28;20189;-84
2021/10/29 11:53:55;;;;;;;8.37;4.23;;;16.10;99.90;;;;;;5088145;28;20223;-80
2021/10/29 11:56:28;;;;;;;10.10;4.20;;;16.10;99.90;;;;;;5069281;28;20490;-80
2021/10/29 11:59:12;;;;;;;9.20;4.57;;;16.20;99.90;;;;;;5069948;28;20209;-80
2021/10/29 12:01:52;;;;;;;11.07;4.88;;;16.10;99.90;;;;;;5068495;28;20354;-82
2021/10/29 12:07:17;;;;;;;5.93;4.57;;;16.10;99.90;;;;;;5067845;28;20242;-80
2021/10/29 12:09:47;;;;;;;7.83;4.30;;;16.10;99.90;;;;;;5069866;28;20514;-81
2021/10/29 12:12:15;;;;;;;7.23;4.10;;;16.10;99.90;;;;;;5067888;28;20212;-83
2021/10/29 12:14:47;;;;;;;5.90;4.20;;;16.20;99.90;;;;;;5067988;28;20201;-84
2021/10/29 12:17:18;;;;;;;6.70;4.25;;;16.20;99.90;;;;;;5068813;28;20232;-85
2021/10/29 12:19:47;;;;;;;7.20;3.80;;;16.20;99.90;;;;;;5069100;28;20547;-81
2021/10/29 12:22:34;;;;;;;6.93;4.10;;;16.30;99.90;;;;;;5067449;28;20258;-80
2021/10/29 12:25:07;;;;;;;6.35;3.70;;;16.30;99.90;;;;;;5074573;28;20224;-84
2021/10/29 12:27:37;;;;;;;9.18;4.05;;;16.30;99.90;;;;;;5077883;28;20312;-82
2021/10/29 12:30:19;;;;;;;5.53;4.17;;;16.40;99.90;;;;;;5067140;28;20200;-81
2021/10/29 12:38:41;;;;;;;7.93;4.15;;;16.40;99.90;;;;;;5068613;28;20259;-80
2021/10/29 13:03:42;;;;;;;5.65;4.35;;;16.50;99.90;;;;;;5066617;28;20566;-79
2021/10/29 13:06:13;;;;;;;7.97;3.85;;;16.50;99.90;;;;;;5068390;28;20201;-83
2021/10/29 13:08:41;;;;;;;9.57;4.55;;;16.50;99.90;;;;;;5068727;28;20592;-83
2021/10/29 13:11:13;;;;;;;4.80;3.75;;;16.60;99.90;;;;;;5067146;28;20265;-83
2021/10/29 13:13:42;;;;;;;5.83;3.97;;;16.60;99.90;;;;;;5067337;28;20565;-86
2021/10/29 13:16:11;;;;;;;5.82;3.40;;;16.60;99.90;;;;;;5066971;28;20237;-86
2021/10/29 13:18:50;;;;;;;6.13;3.95;;;16.70;99.90;;;;;;5065388;28;20220;-84
2021/10/29 13:24:31;;;;;;;7.63;4.03;;;16.70;99.90;;;;;;5083793;28;20600;-81
2021/10/29 13:35:29;;;;;;;6.00;3.30;;;16.30;99.90;;;;;;5066519;28;20497;-80
2021/10/29 13:38:23;;;;;;;7.93;3.77;;;16.30;99.90;;;;;;5065373;28;20201;-84
2021/10/29 13:51:54;;;;;;;9.30;4.20;;;16.40;99.90;;;;;;5066406;28;20207;-81
2021/10/29 13:54:30;;;;;;;13.02;3.40;;;16.40;99.90;;;;;;5065795;28;20255;-80
2021/10/29 13:57:29;;;;;;;7.35;4.05;;;16.40;99.90;;;;;;5066209;28;20222;-79
2021/10/29 14:00:14;;;;;;;4.80;3.53;;;16.40;99.90;;;;;;5065650;28;20201;-81
2021/10/29 14:17:07;;;;;;;6.35;3.60;;;16.40;99.90;;;;;;5004713;28;20559;-82
2021/10/29 14:30:38;;;;;;;5.15;3.70;;;16.30;99.90;;;;;;5076129;28;20207;-85
2021/10/29 14:33:07;;;;;;;8.07;4.15;;;16.30;99.90;;;;;;5089615;28;20252;-85
2021/10/29 14:35:37;;;;;;;4.82;3.83;;;16.30;99.90;;;;;;5090005;28;20536;-85
2021/10/29 14:38:12;;;;;;;6.13;3.83;;;16.30;99.90;;;;;;5072452;28;20263;-81
2021/10/29 14:40:42;;;;;;;8.48;4.45;;;16.30;99.90;;;;;;5066638;28;20209;-83
2021/10/29 14:43:15;;;;;;;8.70;4.15;;;16.30;99.90;;;;;;5068056;28;20221;-82
2021/10/29 14:45:49;;;;;;;8.77;3.88;;;16.20;99.90;;;;;;5071504;28;20267;-82
2021/10/29 14:48:31;;;;;;;10.88;4.70;;;16.10;99.90;;;;;;5070833;28;20204;-83
2021/10/29 15:05:03;;;;;;;12.02;5.03;;;15.50;99.90;;;;;;5071505;28;20697;-85
2021/10/29 15:15:55;;;;;;;8.27;4.97;;;15.20;99.90;;;;;;5071995;28;20204;-90
2021/10/29 15:24:31;;;;;;;11.20;5.20;;;15.20;99.90;;;;;;5070937;28;20316;-87
2021/10/29 15:27:14;;;;;;;9.10;4.70;;;15.10;99.90;;;;;;5091897;28;20865;-89
2021/10/29 15:29:52;;;;;;;8.47;4.47;;;15.00;99.90;;;;;;5075017;28;20219;-88
2021/10/29 15:32:49;;;;;;;8.13;4.47;;;14.90;99.90;;;;;;5070535;28;20212;-88
2021/10/29 15:43:49;;;;;;;6.33;4.30;;;14.80;99.90;;;;;;5093336;28;20701;-85
2021/10/29 15:46:18;;;;;;;6.43;4.50;;;14.80;99.90;;;;;;5075149;28;20228;-88
2021/10/29 15:48:51;;;;;;;7.07;4.90;;;14.80;99.90;;;;;;5073267;28;20213;-90
2021/10/29 15:51:18;;;;;;;5.97;4.43;;;14.70;99.90;;;;;;5072133;28;20209;-89
2021/10/29 15:53:46;;;;;;;7.57;4.73;;;14.60;99.90;;;;;;5071648;28;20209;-85
2021/10/29 15:56:23;;;;;;;6.80;4.57;;;14.60;99.90;;;;;;5072936;28;20280;-85
2021/10/29 15:58:56;;;;;;;9.43;4.67;;;14.50;99.90;;;;;;5070545;28;20200;-84
2021/10/29 16:01:29;;;;;;;7.50;4.43;;;14.50;99.90;;;;;;5069918;28;20251;-84
2021/10/29 16:04:05;;;;;;;6.93;4.90;;;14.50;99.90;;;;;;5070574;28;20231;-82
2021/10/29 16:17:33;;;;;;;5.93;4.30;;;14.30;99.90;;;;;;5070745;28;20293;-86